createdAt,value
2018-10-03T00:00:25.289Z,1009.72
2018-10-03T00:01:25.164Z,1009.83
2018-10-03T00:02:24.596Z,1009.65
2018-10-03T00:03:25.950Z,1009.79
2018-10-03T00:04:26.263Z,1009.71
2018-10-03T00:05:25.592Z,1009.66
2018-10-03T00:06:26.934Z,1009.70
2018-10-03T00:07:27.254Z,1009.71
2018-10-03T00:08:26.634Z,1009.68
2018-10-03T00:09:27.494Z,1009.70
2018-10-03T00:10:27.805Z,1009.70
2018-10-03T00:11:27.325Z,1009.73
2018-10-03T00:12:28.517Z,1009.73
2018-10-03T00:13:29.029Z,1009.71
2018-10-03T00:14:28.034Z,1009.69
2018-10-03T00:15:29.099Z,1009.72
2018-10-03T00:16:28.754Z,1009.72
2018-10-03T00:17:28.070Z,1009.79
2018-10-03T00:18:29.373Z,1009.74
2018-10-03T00:19:29.673Z,1009.79
2018-10-03T00:20:29.066Z,1009.77
2018-10-03T00:21:30.413Z,1009.80
2018-10-03T00:22:30.912Z,1009.81
2018-10-03T00:23:30.596Z,1009.83
2018-10-03T00:24:31.225Z,1009.77
2018-10-03T00:25:31.611Z,1009.89
2018-10-03T00:26:31.002Z,1009.83
2018-10-03T00:27:32.389Z,1009.84
2018-10-03T00:28:32.651Z,1009.79
2018-10-03T00:29:32.138Z,1009.78
2018-10-03T00:30:33.421Z,1009.70
2018-10-03T00:31:34.052Z,1009.67
2018-10-03T00:32:33.052Z,1009.67
2018-10-03T00:33:34.047Z,1009.70
2018-10-03T00:34:34.585Z,1009.74
2018-10-03T00:35:33.822Z,1009.70
2018-10-03T00:36:34.782Z,1009.61
2018-10-03T00:37:35.186Z,1009.63
2018-10-03T00:38:34.919Z,1009.66
2018-10-03T00:39:35.869Z,1009.74
2018-10-03T00:40:36.340Z,1009.71
2018-10-03T00:41:35.998Z,1009.73
2018-10-03T00:42:37.348Z,1009.63
2018-10-03T00:43:37.106Z,1009.71
2018-10-03T00:44:36.747Z,1009.57
2018-10-03T00:45:37.486Z,1009.68
2018-10-03T00:46:37.935Z,1009.71
2018-10-03T00:47:37.519Z,1009.71
2018-10-03T00:48:38.453Z,1009.84
2018-10-03T00:49:38.922Z,1009.84
2018-10-03T00:50:38.546Z,1009.76
2018-10-03T00:51:39.666Z,1009.74
2018-10-03T00:52:39.658Z,1009.82
2018-10-03T00:53:39.141Z,1009.81
2018-10-03T00:54:40.905Z,1009.77
2018-10-03T00:55:40.996Z,1009.77
2018-10-03T00:56:40.109Z,1009.74
2018-10-03T00:57:40.911Z,1009.84
2018-10-03T00:58:41.528Z,1009.75
2018-10-03T00:59:40.449Z,1009.72
2018-10-03T01:00:41.743Z,1009.75
2018-10-03T01:01:42.262Z,1009.79
2018-10-03T01:02:41.230Z,1009.72
2018-10-03T01:03:42.584Z,1009.70
2018-10-03T01:04:43.471Z,1009.73
2018-10-03T01:05:42.395Z,1009.71
2018-10-03T01:06:43.830Z,1009.60
2018-10-03T01:07:44.078Z,1009.63
2018-10-03T01:08:43.525Z,1009.68
2018-10-03T01:09:44.713Z,1009.60
2018-10-03T01:10:44.970Z,1009.61
2018-10-03T01:11:44.597Z,1009.64
2018-10-03T01:12:45.473Z,1009.63
2018-10-03T01:13:45.745Z,1009.61
2018-10-03T01:14:45.154Z,1009.60
2018-10-03T01:15:45.723Z,1009.65
2018-10-03T01:16:46.167Z,1009.68
2018-10-03T01:17:45.577Z,1009.63
2018-10-03T01:18:46.728Z,1009.64
2018-10-03T01:19:47.071Z,1009.64
2018-10-03T01:20:46.397Z,1009.64
2018-10-03T01:21:47.437Z,1009.69
2018-10-03T01:22:47.850Z,1009.72
2018-10-03T01:23:47.424Z,1009.61
2018-10-03T01:24:48.163Z,1009.66
2018-10-03T01:25:48.759Z,1009.65
2018-10-03T01:26:47.560Z,1009.71
2018-10-03T01:27:48.770Z,1009.70
2018-10-03T01:28:49.092Z,1009.67
2018-10-03T01:29:48.839Z,1009.79
2018-10-03T01:30:49.549Z,1009.68
2018-10-03T01:31:50.273Z,1009.76
2018-10-03T01:32:49.509Z,1009.69
2018-10-03T01:33:50.389Z,1009.71
2018-10-03T01:34:50.673Z,1009.83
2018-10-03T01:35:50.331Z,1009.68
2018-10-03T01:36:51.201Z,1009.76
2018-10-03T01:37:51.652Z,1009.82
2018-10-03T01:38:51.318Z,1009.85
2018-10-03T01:39:52.073Z,1009.81
2018-10-03T01:40:52.302Z,1009.85
2018-10-03T01:41:52.026Z,1009.83
2018-10-03T01:42:52.812Z,1009.80
2018-10-03T01:43:53.254Z,1009.79
2018-10-03T01:44:52.899Z,1009.73
2018-10-03T01:45:53.710Z,1009.72
2018-10-03T01:46:54.092Z,1009.67
2018-10-03T01:47:53.741Z,1009.74
2018-10-03T01:48:54.429Z,1009.75
2018-10-03T01:49:54.728Z,1009.77
2018-10-03T01:50:54.245Z,1009.69
2018-10-03T01:52:55.021Z,1009.64
2018-10-03T01:53:54.460Z,1009.75
2018-10-03T01:54:55.755Z,1009.77
2018-10-03T01:55:55.993Z,1009.76
2018-10-03T01:56:55.650Z,1009.75
2018-10-03T01:57:56.243Z,1009.82
2018-10-03T01:58:56.438Z,1009.80
2018-10-03T01:59:55.843Z,1009.73
2018-10-03T02:00:57.354Z,1009.81
2018-10-03T02:01:57.012Z,1009.85
2018-10-03T02:02:56.511Z,1009.74
2018-10-03T02:03:57.640Z,1009.81
2018-10-03T02:04:57.980Z,1009.85
2018-10-03T02:05:57.497Z,1009.80
2018-10-03T02:06:58.234Z,1009.87
2018-10-03T02:07:58.439Z,1009.83
2018-10-03T02:08:57.982Z,1009.85
2018-10-03T02:09:58.758Z,1009.84
2018-10-03T02:10:58.930Z,1009.80
2018-10-03T02:12:59.247Z,1009.80
2018-10-03T02:13:59.416Z,1009.82
2018-10-03T02:14:58.723Z,1009.95
2018-10-03T02:16:00.145Z,1009.87
2018-10-03T02:17:00.356Z,1009.83
2018-10-03T02:17:59.613Z,1009.78
2018-10-03T02:19:00.926Z,1009.83
2018-10-03T02:20:01.048Z,1009.76
2018-10-03T02:21:00.634Z,1009.76
2018-10-03T02:22:01.931Z,1009.76
2018-10-03T02:23:02.055Z,1009.71
2018-10-03T02:24:01.508Z,1009.65
2018-10-03T02:25:02.989Z,1009.73
2018-10-03T02:26:03.115Z,1009.77
2018-10-03T02:27:02.636Z,1009.79
2018-10-03T02:28:03.735Z,1009.77
2018-10-03T02:29:03.693Z,1009.85
2018-10-03T02:30:03.844Z,1009.81
2018-10-03T02:31:04.326Z,1009.92
2018-10-03T02:32:04.614Z,1009.86
2018-10-03T02:33:04.811Z,1009.85
2018-10-03T02:34:05.206Z,1009.80
2018-10-03T02:35:05.508Z,1009.80
2018-10-03T02:36:05.865Z,1009.84
2018-10-03T02:37:06.417Z,1009.90
2018-10-03T02:39:06.275Z,1009.80
2018-10-03T02:40:06.642Z,1009.97
2018-10-03T02:41:06.683Z,1009.99
2018-10-03T02:42:06.604Z,1009.93
2018-10-03T02:43:06.911Z,1009.94
2018-10-03T02:44:07.315Z,1010.00
2018-10-03T02:45:07.620Z,1009.90
2018-10-03T02:46:08.253Z,1009.90
2018-10-03T02:47:08.105Z,1009.86
2018-10-03T02:48:08.352Z,1009.86
2018-10-03T02:49:08.769Z,1009.87
2018-10-03T02:50:09.211Z,1009.95
2018-10-03T02:51:09.408Z,1009.98
2018-10-03T02:52:09.555Z,1009.97
2018-10-03T02:53:10.069Z,1009.96
2018-10-03T02:54:09.800Z,1010.06
2018-10-03T02:55:10.332Z,1010.09
2018-10-03T02:56:10.177Z,1009.94
2018-10-03T02:57:10.362Z,1009.94
2018-10-03T02:58:10.645Z,1010.05
2018-10-03T02:59:10.972Z,1010.05
2018-10-03T03:00:10.978Z,1010.07
2018-10-03T03:01:11.373Z,1010.04
2018-10-03T03:02:11.737Z,1010.06
2018-10-03T03:03:11.867Z,1010.12
2018-10-03T03:04:12.198Z,1010.07
2018-10-03T03:05:12.413Z,1009.98
2018-10-03T03:06:12.817Z,1010.01
2018-10-03T03:07:13.122Z,1010.01
2018-10-03T03:08:14.027Z,1009.97
2018-10-03T03:09:14.160Z,1010.01
2018-10-03T03:10:13.898Z,1010.08
2018-10-03T03:11:14.188Z,1010.01
2018-10-03T03:12:14.256Z,1010.12
2018-10-03T03:13:14.256Z,1010.02
2018-10-03T03:14:15.074Z,1009.95
2018-10-03T03:15:15.280Z,1009.91
2018-10-03T03:16:15.560Z,1009.99
2018-10-03T03:17:15.878Z,1010.05
2018-10-03T03:18:16.130Z,1010.00
2018-10-03T03:20:15.791Z,1010.01
2018-10-03T03:21:16.391Z,1010.00
2018-10-03T03:22:16.633Z,1010.11
2018-10-03T03:23:16.829Z,1010.04
2018-10-03T03:24:16.881Z,1010.10
2018-10-03T03:25:17.197Z,1010.06
2018-10-03T03:26:17.389Z,1009.96
2018-10-03T03:27:17.500Z,1010.03
2018-10-03T03:28:17.813Z,1010.04
2018-10-03T03:29:18.215Z,1010.17
2018-10-03T03:30:18.621Z,1010.15
2018-10-03T03:31:19.080Z,1010.08
2018-10-03T03:32:18.950Z,1010.14
2018-10-03T03:33:19.664Z,1010.16
2018-10-03T03:34:20.080Z,1010.08
2018-10-03T03:35:19.869Z,1010.13
2018-10-03T03:36:20.761Z,1010.14
2018-10-03T03:37:21.100Z,1010.13
2018-10-03T03:38:20.927Z,1010.13
2018-10-03T03:39:21.897Z,1010.19
2018-10-03T03:40:22.481Z,1010.17
2018-10-03T03:41:21.794Z,1010.25
2018-10-03T03:42:22.609Z,1010.17
2018-10-03T03:43:23.098Z,1010.16
2018-10-03T03:44:22.329Z,1010.18
2018-10-03T03:45:23.259Z,1010.16
2018-10-03T03:46:23.795Z,1010.24
2018-10-03T03:47:22.886Z,1010.26
2018-10-03T03:48:23.835Z,1010.15
2018-10-03T03:49:24.304Z,1010.25
2018-10-03T03:50:23.485Z,1010.26
2018-10-03T03:51:24.533Z,1010.19
2018-10-03T03:52:24.466Z,1010.32
2018-10-03T03:53:23.969Z,1010.29
2018-10-03T03:54:25.020Z,1010.33
2018-10-03T03:55:24.949Z,1010.32
2018-10-03T03:56:24.376Z,1010.35
2018-10-03T03:57:26.045Z,1010.39
2018-10-03T03:58:25.880Z,1010.45
2018-10-03T03:59:25.403Z,1010.48
2018-10-03T04:00:26.320Z,1010.39
2018-10-03T04:01:26.682Z,1010.41
2018-10-03T04:02:26.130Z,1010.40
2018-10-03T04:03:27.481Z,1010.45
2018-10-03T04:04:27.872Z,1010.51
2018-10-03T04:05:27.322Z,1010.54
2018-10-03T04:06:28.577Z,1010.45
2018-10-03T04:07:28.911Z,1010.48
2018-10-03T04:08:28.502Z,1010.55
2018-10-03T04:09:29.384Z,1010.61
2018-10-03T04:10:29.642Z,1010.50
2018-10-03T04:11:29.921Z,1010.49
2018-10-03T04:12:30.539Z,1010.53
2018-10-03T04:13:30.298Z,1010.44
2018-10-03T04:14:29.874Z,1010.46
2018-10-03T04:15:30.598Z,1010.58
2018-10-03T04:16:30.826Z,1010.56
2018-10-03T04:17:30.304Z,1010.57
2018-10-03T04:18:31.707Z,1010.63
2018-10-03T04:19:32.182Z,1010.66
2018-10-03T04:20:31.500Z,1010.63
2018-10-03T04:21:32.803Z,1010.62
2018-10-03T04:22:33.308Z,1010.68
2018-10-03T04:23:32.658Z,1010.72
2018-10-03T04:24:34.039Z,1010.70
2018-10-03T04:25:34.541Z,1010.70
2018-10-03T04:26:34.461Z,1010.70
2018-10-03T04:27:35.347Z,1010.65
2018-10-03T04:28:35.737Z,1010.71
2018-10-03T04:29:35.490Z,1010.77
2018-10-03T04:30:36.568Z,1010.83
2018-10-03T04:31:36.558Z,1010.84
2018-10-03T04:32:36.306Z,1010.88
2018-10-03T04:33:37.489Z,1010.76
2018-10-03T04:34:39.781Z,1010.79
2018-10-03T04:35:36.724Z,1010.77
2018-10-03T04:36:37.753Z,1010.76
2018-10-03T04:37:37.750Z,1010.81
2018-10-03T04:38:37.030Z,1010.77
2018-10-03T04:39:38.013Z,1010.76
2018-10-03T04:40:38.429Z,1010.73
2018-10-03T04:41:38.055Z,1010.76
2018-10-03T04:42:39.158Z,1010.63
2018-10-03T04:43:39.075Z,1010.67
2018-10-03T04:44:38.703Z,1010.74
2018-10-03T04:45:39.706Z,1010.69
2018-10-03T04:46:40.097Z,1010.64
2018-10-03T04:47:39.499Z,1010.65
2018-10-03T04:48:41.356Z,1010.71
2018-10-03T04:49:41.268Z,1010.65
2018-10-03T04:50:40.627Z,1010.71
2018-10-03T04:51:42.032Z,1010.70
2018-10-03T04:52:42.519Z,1010.68
2018-10-03T04:53:42.121Z,1010.68
2018-10-03T04:54:43.106Z,1010.66
2018-10-03T04:55:43.299Z,1010.71
2018-10-03T04:56:42.635Z,1010.73
2018-10-03T04:57:44.617Z,1010.70
2018-10-03T04:58:43.842Z,1010.75
2018-10-03T04:59:43.114Z,1010.69
2018-10-03T05:00:44.301Z,1010.66
2018-10-03T05:01:44.712Z,1010.74
2018-10-03T05:02:44.162Z,1010.71
2018-10-03T05:03:45.558Z,1010.72
2018-10-03T05:04:45.924Z,1010.77
2018-10-03T05:05:45.430Z,1010.75
2018-10-03T05:06:46.500Z,1010.71
2018-10-03T05:07:46.956Z,1010.80
2018-10-03T05:08:45.805Z,1010.87
2018-10-03T05:09:46.887Z,1010.86
2018-10-03T05:10:47.112Z,1010.95
2018-10-03T05:11:46.435Z,1010.96
2018-10-03T05:12:47.571Z,1010.98
2018-10-03T05:13:48.029Z,1011.00
2018-10-03T05:14:47.569Z,1010.98
2018-10-03T05:15:48.268Z,1010.98
2018-10-03T05:16:48.885Z,1011.02
2018-10-03T05:17:47.798Z,1011.00
2018-10-03T05:18:49.316Z,1011.00
2018-10-03T05:19:49.689Z,1011.00
2018-10-03T05:20:49.399Z,1011.05
2018-10-03T05:21:50.143Z,1011.05
2018-10-03T05:22:50.432Z,1011.02
2018-10-03T05:23:50.139Z,1011.11
2018-10-03T05:24:50.994Z,1011.10
2018-10-03T05:25:51.462Z,1011.12
2018-10-03T05:26:51.116Z,1011.12
2018-10-03T05:27:52.046Z,1011.14
2018-10-03T05:28:52.264Z,1011.13
2018-10-03T05:29:51.957Z,1011.07
2018-10-03T05:30:52.645Z,1011.07
2018-10-03T05:31:53.074Z,1011.16
2018-10-03T05:32:52.713Z,1011.10
2018-10-03T05:33:53.517Z,1011.18
2018-10-03T05:34:54.058Z,1011.15
2018-10-03T05:35:53.820Z,1011.21
2018-10-03T05:36:54.585Z,1011.23
2018-10-03T05:37:54.865Z,1011.26
2018-10-03T05:38:54.365Z,1011.27
2018-10-03T05:39:54.878Z,1011.31
2018-10-03T05:40:55.693Z,1011.43
2018-10-03T05:41:55.216Z,1011.36
2018-10-03T05:42:55.875Z,1011.39
2018-10-03T05:43:56.064Z,1011.47
2018-10-03T05:44:55.629Z,1011.41
2018-10-03T05:46:56.241Z,1011.40
2018-10-03T05:47:55.741Z,1011.57
2018-10-03T05:48:57.167Z,1011.59
2018-10-03T05:49:57.368Z,1011.60
2018-10-03T05:50:56.885Z,1011.66
2018-10-03T05:51:57.729Z,1011.63
2018-10-03T05:52:57.824Z,1011.63
2018-10-03T05:53:57.329Z,1011.74
2018-10-03T05:54:58.555Z,1011.70
2018-10-03T05:55:58.922Z,1011.68
2018-10-03T05:56:58.451Z,1011.70
2018-10-03T05:57:59.191Z,1011.66
2018-10-03T05:58:59.181Z,1011.76
2018-10-03T05:59:59.130Z,1011.79
2018-10-03T06:01:00.477Z,1011.75
2018-10-03T06:02:00.504Z,1011.79
2018-10-03T06:03:00.001Z,1011.80
2018-10-03T06:04:01.413Z,1011.82
2018-10-03T06:05:01.472Z,1011.88
2018-10-03T06:06:01.029Z,1011.80
2018-10-03T06:07:02.360Z,1011.84
2018-10-03T06:08:02.408Z,1011.88
2018-10-03T06:09:01.937Z,1011.94
2018-10-03T06:10:03.098Z,1012.04
2018-10-03T06:11:02.841Z,1011.98
2018-10-03T06:12:02.861Z,1011.99
2018-10-03T06:13:03.833Z,1012.04
2018-10-03T06:14:03.655Z,1012.10
2018-10-03T06:15:03.764Z,1012.13
2018-10-03T06:16:04.202Z,1012.12
2018-10-03T06:17:04.508Z,1012.08
2018-10-03T06:18:04.936Z,1012.12
2018-10-03T06:19:05.359Z,1012.08
2018-10-03T06:20:05.726Z,1012.09
2018-10-03T06:21:06.069Z,1012.14
2018-10-03T06:22:06.542Z,1012.14
2018-10-03T06:23:06.801Z,1012.22
2018-10-03T06:24:07.275Z,1012.19
2018-10-03T06:25:07.740Z,1012.28
2018-10-03T06:26:07.973Z,1012.19
2018-10-03T06:27:08.414Z,1012.14
2018-10-03T06:28:08.920Z,1012.23
2018-10-03T06:29:09.411Z,1012.21
2018-10-03T06:30:09.334Z,1012.15
2018-10-03T06:31:09.635Z,1012.25
2018-10-03T06:32:10.272Z,1012.22
2018-10-03T06:33:09.835Z,1012.26
2018-10-03T06:34:10.409Z,1012.26
2018-10-03T06:35:10.159Z,1012.28
2018-10-03T06:36:10.408Z,1012.23
2018-10-03T06:37:10.943Z,1012.24
2018-10-03T06:38:10.780Z,1012.26
2018-10-03T06:39:11.131Z,1012.29
2018-10-03T06:40:11.504Z,1012.21
2018-10-03T06:41:11.853Z,1012.28
2018-10-03T06:42:13.429Z,1012.36
2018-10-03T06:43:12.348Z,1012.43
2018-10-03T06:44:13.138Z,1012.36
2018-10-03T06:45:13.553Z,1012.42
2018-10-03T06:46:13.362Z,1012.46
2018-10-03T06:47:14.068Z,1012.45
2018-10-03T06:48:13.674Z,1012.44
2018-10-03T06:49:13.932Z,1012.53
2018-10-03T06:50:14.419Z,1012.57
2018-10-03T06:51:17.177Z,1012.62
2018-10-03T06:52:14.745Z,1012.57
2018-10-03T06:53:15.056Z,1012.55
2018-10-03T06:54:15.113Z,1012.56
2018-10-03T06:55:15.382Z,1012.55
2018-10-03T06:56:15.525Z,1012.41
2018-10-03T06:57:15.774Z,1012.42
2018-10-03T06:58:16.016Z,1012.47
2018-10-03T06:59:16.055Z,1012.44
2018-10-03T07:00:16.180Z,1012.45
2018-10-03T07:01:16.482Z,1012.50
2018-10-03T07:02:16.731Z,1012.49
2018-10-03T07:03:16.785Z,1012.55
2018-10-03T07:04:17.104Z,1012.52
2018-10-03T07:05:17.395Z,1012.58
2018-10-03T07:06:17.621Z,1012.53
2018-10-03T07:07:17.974Z,1012.53
2018-10-03T07:08:18.602Z,1012.52
2018-10-03T07:09:18.581Z,1012.57
2018-10-03T07:10:18.997Z,1012.63
2018-10-03T07:11:19.580Z,1012.60
2018-10-03T07:12:19.699Z,1012.58
2018-10-03T07:13:19.618Z,1012.67
2018-10-03T07:14:20.234Z,1012.65
2018-10-03T07:15:20.203Z,1012.66
2018-10-03T07:16:20.765Z,1012.63
2018-10-03T07:17:20.866Z,1012.67
2018-10-03T07:18:20.771Z,1012.62
2018-10-03T07:19:21.164Z,1012.67
2018-10-03T07:20:21.337Z,1012.63
2018-10-03T07:21:21.924Z,1012.68
2018-10-03T07:22:21.718Z,1012.60
2018-10-03T07:23:22.251Z,1012.73
2018-10-03T07:24:22.220Z,1012.72
2018-10-03T07:25:22.650Z,1012.76
2018-10-03T07:26:22.347Z,1012.69
2018-10-03T07:27:23.328Z,1012.73
2018-10-03T07:28:23.669Z,1012.72
2018-10-03T07:29:23.402Z,1012.68
2018-10-03T07:30:24.297Z,1012.76
2018-10-03T07:31:24.757Z,1012.79
2018-10-03T07:32:24.348Z,1012.77
2018-10-03T07:33:25.154Z,1012.78
2018-10-03T07:34:25.581Z,1012.77
2018-10-03T07:35:25.183Z,1012.80
2018-10-03T07:36:25.986Z,1012.85
2018-10-03T07:37:26.235Z,1012.78
2018-10-03T07:38:25.859Z,1012.81
2018-10-03T07:39:26.669Z,1012.84
2018-10-03T07:40:27.000Z,1012.80
2018-10-03T07:41:26.584Z,1012.89
2018-10-03T07:43:27.198Z,1012.83
2018-10-03T07:44:26.826Z,1012.91
2018-10-03T07:45:27.563Z,1012.86
2018-10-03T07:46:27.807Z,1012.88
2018-10-03T07:47:27.274Z,1012.90
2018-10-03T07:48:29.201Z,1012.92
2018-10-03T07:49:29.043Z,1012.94
2018-10-03T07:50:28.542Z,1012.93
2018-10-03T07:51:29.374Z,1012.89
2018-10-03T07:52:29.636Z,1012.96
2018-10-03T07:53:29.029Z,1012.95
2018-10-03T07:54:30.314Z,1012.92
2018-10-03T07:55:30.467Z,1012.93
2018-10-03T07:56:30.063Z,1012.93
2018-10-03T07:57:30.889Z,1012.94
2018-10-03T07:58:31.113Z,1012.94
2018-10-03T07:59:30.704Z,1012.84
2018-10-03T08:00:31.371Z,1012.94
2018-10-03T08:01:31.697Z,1012.94
2018-10-03T08:02:31.152Z,1012.89
2018-10-03T08:03:32.409Z,1012.94
2018-10-03T08:04:32.685Z,1012.90
2018-10-03T08:05:32.281Z,1013.00
2018-10-03T08:06:33.065Z,1013.03
2018-10-03T08:07:33.638Z,1012.90
2018-10-03T08:08:32.607Z,1012.97
2018-10-03T08:09:33.935Z,1013.07
2018-10-03T08:10:34.212Z,1013.04
2018-10-03T08:11:33.906Z,1013.12
2018-10-03T08:12:35.007Z,1013.06
2018-10-03T08:13:34.996Z,1013.06
2018-10-03T08:14:34.382Z,1013.06
2018-10-03T08:15:35.358Z,1013.07
2018-10-03T08:16:35.474Z,1013.07
2018-10-03T08:17:35.226Z,1013.08
2018-10-03T08:18:36.316Z,1013.16
2018-10-03T08:19:36.528Z,1013.03
2018-10-03T08:20:35.837Z,1013.07
2018-10-03T08:21:36.809Z,1013.07
2018-10-03T08:22:37.296Z,1013.08
2018-10-03T08:23:36.610Z,1013.14
2018-10-03T08:24:37.871Z,1013.07
2018-10-03T08:25:37.803Z,1013.14
2018-10-03T08:26:37.051Z,1013.20
2018-10-03T08:27:38.114Z,1013.27
2018-10-03T08:28:39.420Z,1013.31
2018-10-03T08:29:37.569Z,1013.26
2018-10-03T08:30:38.510Z,1013.29
2018-10-03T08:31:39.236Z,1013.32
2018-10-03T08:32:38.496Z,1013.33
2018-10-03T08:33:39.388Z,1013.32
2018-10-03T08:34:39.262Z,1013.38
2018-10-03T08:35:38.754Z,1013.34
2018-10-03T08:36:40.097Z,1013.37
2018-10-03T08:37:40.552Z,1013.40
2018-10-03T08:38:40.202Z,1013.42
2018-10-03T08:39:41.066Z,1013.37
2018-10-03T08:40:41.208Z,1013.44
2018-10-03T08:41:40.758Z,1013.48
2018-10-03T08:42:41.989Z,1013.49
2018-10-03T08:44:41.330Z,1013.45
2018-10-03T08:45:42.800Z,1013.57
2018-10-03T08:46:44.049Z,1013.56
2018-10-03T08:47:42.416Z,1013.58
2018-10-03T08:48:43.653Z,1013.62
2018-10-03T08:49:43.754Z,1013.63
2018-10-03T08:50:43.313Z,1013.67
2018-10-03T08:51:44.043Z,1013.67
2018-10-03T08:52:44.501Z,1013.56
2018-10-03T08:53:43.982Z,1013.61
2018-10-03T08:54:45.025Z,1013.60
2018-10-03T08:55:45.324Z,1013.68
2018-10-03T08:56:44.871Z,1013.76
2018-10-03T08:57:45.722Z,1013.73
2018-10-03T08:58:45.983Z,1013.76
2018-10-03T08:59:45.565Z,1013.82
2018-10-03T09:00:46.275Z,1013.77
2018-10-03T09:01:46.341Z,1013.88
2018-10-03T09:02:45.961Z,1013.87
2018-10-03T09:03:46.523Z,1013.87
2018-10-03T09:04:46.927Z,1013.89
2018-10-03T09:05:46.427Z,1013.85
2018-10-03T09:06:47.025Z,1013.88
2018-10-03T09:07:47.290Z,1013.88
2018-10-03T09:08:46.753Z,1013.90
2018-10-03T09:09:47.958Z,1013.83
2018-10-03T09:10:48.726Z,1013.80
2018-10-03T09:11:47.843Z,1013.94
2018-10-03T09:12:48.601Z,1013.90
2018-10-03T09:13:49.007Z,1013.95
2018-10-03T09:14:48.773Z,1013.97
2018-10-03T09:15:49.537Z,1013.92
2018-10-03T09:16:50.020Z,1013.95
2018-10-03T09:17:49.681Z,1013.91
2018-10-03T09:18:50.604Z,1013.92
2018-10-03T09:19:50.827Z,1013.91
2018-10-03T09:20:50.628Z,1013.95
2018-10-03T09:21:51.697Z,1013.95
2018-10-03T09:22:51.801Z,1014.01
2018-10-03T09:23:51.420Z,1014.03
2018-10-03T09:24:52.299Z,1014.06
2018-10-03T09:25:52.609Z,1014.02
2018-10-03T09:26:52.265Z,1014.11
2018-10-03T09:27:52.915Z,1014.10
2018-10-03T09:28:53.057Z,1014.19
2018-10-03T09:29:52.390Z,1014.18
2018-10-03T09:30:53.818Z,1014.13
2018-10-03T09:31:54.230Z,1014.19
2018-10-03T09:32:53.816Z,1014.13
2018-10-03T09:33:54.650Z,1014.10
2018-10-03T09:34:54.926Z,1014.09
2018-10-03T09:35:54.281Z,1014.16
2018-10-03T09:36:55.518Z,1014.15
2018-10-03T09:37:55.875Z,1014.09
2018-10-03T09:38:55.453Z,1014.21
2018-10-03T09:39:56.164Z,1014.13
2018-10-03T09:40:56.363Z,1014.21
2018-10-03T09:41:55.626Z,1014.17
2018-10-03T09:42:56.881Z,1014.24
2018-10-03T09:43:56.925Z,1014.21
2018-10-03T09:44:56.442Z,1014.20
2018-10-03T09:45:57.283Z,1014.27
2018-10-03T09:46:57.463Z,1014.25
2018-10-03T09:47:57.004Z,1014.29
2018-10-03T09:48:58.037Z,1014.35
2018-10-03T09:49:57.547Z,1014.32
2018-10-03T09:50:57.111Z,1014.32
2018-10-03T09:51:58.040Z,1014.31
2018-10-03T09:52:58.130Z,1014.26
2018-10-03T09:53:57.647Z,1014.32
2018-10-03T09:54:58.332Z,1014.25
2018-10-03T09:55:58.541Z,1014.34
2018-10-03T09:56:58.053Z,1014.32
2018-10-03T09:57:59.785Z,1014.39
2018-10-03T09:58:58.866Z,1014.36
2018-10-03T09:59:58.364Z,1014.28
2018-10-03T10:00:59.100Z,1014.44
2018-10-03T10:01:59.392Z,1014.40
2018-10-03T10:02:58.652Z,1014.47
2018-10-03T10:03:59.933Z,1014.48
2018-10-03T10:05:00.205Z,1014.49
2018-10-03T10:05:59.718Z,1014.48
2018-10-03T10:07:00.630Z,1014.54
2018-10-03T10:08:00.800Z,1014.43
2018-10-03T10:09:00.385Z,1014.46
2018-10-03T10:10:01.636Z,1014.49
2018-10-03T10:11:01.306Z,1014.58
2018-10-03T10:12:00.814Z,1014.46
2018-10-03T10:13:01.655Z,1014.46
2018-10-03T10:14:01.777Z,1014.46
2018-10-03T10:15:01.212Z,1014.55
2018-10-03T10:16:02.257Z,1014.54
2018-10-03T10:17:02.341Z,1014.52
2018-10-03T10:18:01.925Z,1014.61
2018-10-03T10:19:02.812Z,1014.59
2018-10-03T10:20:03.189Z,1014.51
2018-10-03T10:21:02.585Z,1014.66
2018-10-03T10:22:03.593Z,1014.54
2018-10-03T10:23:03.428Z,1014.59
2018-10-03T10:24:03.635Z,1014.51
2018-10-03T10:25:04.257Z,1014.57
2018-10-03T10:26:03.909Z,1014.57
2018-10-03T10:27:04.392Z,1014.61
2018-10-03T10:28:04.810Z,1014.55
2018-10-03T10:29:05.215Z,1014.64
2018-10-03T10:30:05.559Z,1014.58
2018-10-03T10:31:05.895Z,1014.61
2018-10-03T10:32:06.156Z,1014.62
2018-10-03T10:33:06.533Z,1014.56
2018-10-03T10:34:06.893Z,1014.63
2018-10-03T10:35:07.357Z,1014.61
2018-10-03T10:36:07.562Z,1014.63
2018-10-03T10:37:08.003Z,1014.60
2018-10-03T10:38:08.050Z,1014.64
2018-10-03T10:39:08.436Z,1014.66
2018-10-03T10:40:09.087Z,1014.61
2018-10-03T10:41:09.001Z,1014.61
2018-10-03T10:42:09.151Z,1014.64
2018-10-03T10:43:09.644Z,1014.71
2018-10-03T10:44:10.076Z,1014.71
2018-10-03T10:45:10.421Z,1014.77
2018-10-03T10:46:10.952Z,1014.73
2018-10-03T10:47:10.754Z,1014.72
2018-10-03T10:48:10.965Z,1014.74
2018-10-03T10:49:11.038Z,1014.73
2018-10-03T10:50:11.447Z,1014.79
2018-10-03T10:51:11.505Z,1014.74
2018-10-03T10:52:11.756Z,1014.71
2018-10-03T10:53:12.205Z,1014.74
2018-10-03T10:54:14.687Z,1014.68
2018-10-03T10:56:13.103Z,1014.75
2018-10-03T10:57:13.305Z,1014.73
2018-10-03T10:58:13.900Z,1014.78
2018-10-03T10:59:14.116Z,1014.76
2018-10-03T11:00:14.289Z,1014.75
2018-10-03T11:01:14.532Z,1014.71
2018-10-03T11:02:14.843Z,1014.69
2018-10-03T11:03:14.925Z,1014.70
2018-10-03T11:04:15.274Z,1014.73
2018-10-03T11:05:15.683Z,1014.81
2018-10-03T11:06:15.669Z,1014.72
2018-10-03T11:07:16.439Z,1014.76
2018-10-03T11:08:16.492Z,1014.79
2018-10-03T11:09:16.535Z,1014.84
2018-10-03T11:10:16.912Z,1014.85
2018-10-03T11:11:17.385Z,1014.90
2018-10-03T11:12:17.620Z,1014.86
2018-10-03T11:13:17.811Z,1014.86
2018-10-03T11:14:18.196Z,1014.92
2018-10-03T11:15:18.710Z,1014.89
2018-10-03T11:16:18.701Z,1014.77
2018-10-03T11:17:19.420Z,1014.82
2018-10-03T11:18:19.387Z,1014.92
2018-10-03T11:19:19.748Z,1014.89
2018-10-03T11:20:19.467Z,1014.91
2018-10-03T11:21:20.322Z,1014.96
2018-10-03T11:22:20.703Z,1014.89
2018-10-03T11:23:20.467Z,1014.86
2018-10-03T11:24:21.353Z,1014.89
2018-10-03T11:25:21.723Z,1014.79
2018-10-03T11:26:20.966Z,1014.86
2018-10-03T11:27:21.938Z,1014.92
2018-10-03T11:28:22.014Z,1014.92
2018-10-03T11:29:21.513Z,1014.91
2018-10-03T11:30:22.158Z,1014.91
2018-10-03T11:31:22.221Z,1014.97
2018-10-03T11:32:21.990Z,1014.89
2018-10-03T11:33:22.855Z,1014.90
2018-10-03T11:34:23.758Z,1014.85
2018-10-03T11:35:23.132Z,1014.88
2018-10-03T11:36:24.114Z,1014.77
2018-10-03T11:37:24.718Z,1014.85
2018-10-03T11:38:24.695Z,1014.85
2018-10-03T11:39:25.110Z,1014.82
2018-10-03T11:40:25.162Z,1014.82
2018-10-03T11:41:24.924Z,1014.90
2018-10-03T11:42:25.865Z,1014.83
2018-10-03T11:43:26.145Z,1014.82
2018-10-03T11:44:25.787Z,1014.82
2018-10-03T11:45:26.837Z,1014.82
2018-10-03T11:46:26.502Z,1014.85
2018-10-03T11:47:26.106Z,1014.87
2018-10-03T11:48:26.923Z,1014.89
2018-10-03T11:49:27.339Z,1014.93
2018-10-03T11:51:27.569Z,1014.92
2018-10-03T11:52:27.970Z,1014.86
2018-10-03T11:53:27.603Z,1014.88
2018-10-03T11:54:28.318Z,1014.85
2018-10-03T11:55:28.571Z,1014.83
2018-10-03T11:56:28.237Z,1014.92
2018-10-03T11:57:29.603Z,1014.95
2018-10-03T11:58:29.317Z,1014.94
2018-10-03T11:59:28.918Z,1014.92
2018-10-03T12:00:29.612Z,1014.86
2018-10-03T12:01:29.979Z,1014.94
2018-10-03T12:02:29.669Z,1014.88
2018-10-03T12:03:30.482Z,1014.95
2018-10-03T12:04:30.852Z,1014.94
2018-10-03T12:05:30.389Z,1014.96
2018-10-03T12:06:31.233Z,1015.04
2018-10-03T12:07:31.391Z,1014.84
2018-10-03T12:08:30.935Z,1014.90
2018-10-03T12:09:31.762Z,1014.94
2018-10-03T12:10:32.395Z,1014.86
2018-10-03T12:11:31.621Z,1014.87
2018-10-03T12:12:32.723Z,1014.80
2018-10-03T12:13:33.087Z,1014.80
2018-10-03T12:14:32.525Z,1014.79
2018-10-03T12:15:34.235Z,1014.83
2018-10-03T12:16:34.436Z,1014.74
2018-10-03T12:17:33.949Z,1014.69